Acworth, Georgia
Current Conditions -  °F | °C
As of 4:55 PM on Monday 22 Dec 2014 (Local Time) from KRYY Reporting Station
Light Rain Light Rain  
Wind Chill: 38°   Ceiling: 400
Heat Index: 45°   Visibility: 2.5mi
Dew Point: 41°   Wind: 14mph
Humidity: 87%   Direction: 110°ESE
Pressure: 29.92"   Gusts: 22mph
Location:  34.06°N, 84.68°W
Report Text: KRYY 222155Z 11012G19KT 060V150 2 1/2SM -RA BR OVC004 07/05 A2992
Loading
Personal Weather Stations






























Interactive Weather Map New forecast layout! Learn more

10-Day Weather Forecast

Advertisements
Track Severe Weather on mobile